Odonnell, TX (79351)

10:28 PM CST on February 21, 2018 (GMT -0600)
Dawson County - Welch | | Change Station

Elev 3127 ft 32.96 °N, 102.14 °W | Updated 2 minutes ago

Overcast
Overcast
25.1 °F
Feels Like 15 °F
N
10.1
Wind Variable Wind from ENE
Gusts 11.4 mph

Today
High -- | Low -- °F
--% Chance of Precip.
Yesterday
High -- | Low -- °F
Precip. -- in
Pressure 30.32 in
Visibility 8.0 miles
Clouds Overcast 800 ft
Windchill 15 °F
Dew Point 24 °F
Humidity 95%
Rainfall 0.00 in
Snow Depth Not available.
7:24 AM 6:38 PM
Waxing Crescent, 37% visible
METAR KLBB 220353Z 07008KT 8SM OVC008 M03/M06 A3026 RMK AO2 SLP266 T10331056
Pressure 30.32 in
Visibility 8.0 miles
Clouds Overcast 800 ft
Windchill 15 °F
Dew Point 24 °F
Humidity 95%
Rainfall 0.00 in
Snow Depth Not available.
7:24 AM 6:38 PM
Waxing Crescent, 37% visible
METAR KLBB 220353Z 07008KT 8SM OVC008 M03/M06 A3026 RMK AO2 SLP266 T10331056

Get Severe Weather Alerts

Thanks for signing up!

Be on the lookout for a verification email in your inbox.

You'll start receiving the daily forecast at 6 AM.

×

10-Day Weather Forecast

Almanac

Astronomy

Feb. 21, 2018 Rise Set
Actual Time
Civil Twilight
Nautical Twilight
Astronomical Twilight
Moon
Length of Visible Light
Length of Day
Tomorrow will be .
, % of the Moon is Illuminated

Today's Extremes

State Highs State Lows

Community

WunderPhotos

Category 6

Welcome to Category 6. This is the collective home for Weather Underground's featured writeups by Dr. Jeff Masters (right), Bob Henson (left), Chris Burt, and other regular contributors.

Nearby

Air Quality

  Air Quality AQ Index Pollutant
Not available.

Snow Depth

Station Depth Elevation

Earthquake Activity

City Distance Mag. Time & Date
Minimum magnitude displayed is 2.5.

Coastal Water Temperatures

Place Temperature

Stations

Nearby Weather Stations

Station Location Temp. Windchill Dew Point Humidity Wind Precip. Elev Updated Type
                   

Watches & Warnings

There are currently no watches in effect.